createdAt,value
2018-12-04T00:00:44.128Z,94973.59
2018-12-04T00:03:14.481Z,94975.34
2018-12-04T00:05:44.763Z,94976.94
2018-12-04T00:08:14.987Z,94977.63
2018-12-04T00:10:45.294Z,94967.41
2018-12-04T00:13:15.518Z,94967.77
2018-12-04T00:15:45.864Z,94966.77
2018-12-04T00:18:15.997Z,94964.71
2018-12-04T00:20:46.437Z,94965.48
2018-12-04T00:23:17.459Z,94965.69
2018-12-04T00:25:48.129Z,94965.39
2018-12-04T00:28:18.361Z,94962.66
2018-12-04T00:30:49.096Z,94959.84
2018-12-04T00:33:19.243Z,94959.38
2018-12-04T00:35:49.778Z,94960.06
2018-12-04T00:38:22.124Z,94967.21
2018-12-04T00:40:52.491Z,94961.95
2018-12-04T00:43:24.526Z,94963.26
2018-12-04T00:45:54.767Z,94960.56
2018-12-04T00:48:25.500Z,94957.70
2018-12-04T00:50:55.856Z,94958.01
2018-12-04T00:53:26.896Z,94952.90
2018-12-04T00:55:58.319Z,94952.40
2018-12-04T00:58:28.717Z,94947.62
2018-12-04T01:00:59.470Z,94938.38
2018-12-04T01:03:30.311Z,94936.28
2018-12-04T01:06:01.658Z,94933.44
2018-12-04T01:08:32.801Z,94932.16
2018-12-04T01:11:02.993Z,94929.08
2018-12-04T01:13:33.828Z,94922.17
2018-12-04T01:16:04.117Z,94914.19
2018-12-04T01:18:34.773Z,94913.65
2018-12-04T01:21:05.417Z,94920.17
2018-12-04T01:23:36.677Z,94917.77
2018-12-04T01:26:07.178Z,94900.27
2018-12-04T01:28:37.308Z,94901.52
2018-12-04T01:31:07.926Z,94902.28
2018-12-04T01:33:38.395Z,94900.27
2018-12-04T01:36:09.098Z,94900.63
2018-12-04T01:38:41.629Z,94891.41
2018-12-04T01:41:12.349Z,94896.16
2018-12-04T01:43:43.310Z,94897.42
2018-12-04T01:46:14.356Z,94895.85
2018-12-04T01:48:45.404Z,94900.95
2018-12-04T01:51:16.417Z,94898.10
2018-12-04T01:53:47.440Z,94903.56
2018-12-04T01:56:18.532Z,94904.84
2018-12-04T01:58:48.963Z,94898.45
2018-12-04T02:01:19.313Z,94900.88
2018-12-04T02:03:49.654Z,94902.41
2018-12-04T02:06:20.605Z,94897.13
2018-12-04T02:08:51.109Z,94890.90
2018-12-04T02:11:22.010Z,94894.19
2018-12-04T02:13:52.858Z,94890.48
2018-12-04T02:16:23.621Z,94891.58
2018-12-04T02:18:55.461Z,94887.75
2018-12-04T02:21:26.750Z,94892.16
2018-12-04T02:23:57.609Z,94896.08
2018-12-04T02:26:28.441Z,94891.82
2018-12-04T02:28:59.127Z,94893.80
2018-12-04T02:31:31.791Z,94893.39
2018-12-04T02:34:02.228Z,94895.23
2018-12-04T02:36:32.727Z,94895.88
2018-12-04T02:39:03.812Z,94894.30
2018-12-04T02:41:34.708Z,94893.05
2018-12-04T02:44:05.670Z,94892.44
2018-12-04T02:46:36.437Z,94891.00
2018-12-04T02:49:07.100Z,94887.17
2018-12-04T02:51:37.737Z,94888.13
2018-12-04T02:54:09.067Z,94886.66
2018-12-04T02:56:40.037Z,94885.38
2018-12-04T02:59:12.303Z,94883.14
2018-12-04T03:01:43.031Z,94881.39
2018-12-04T03:04:13.383Z,94889.84
2018-12-04T03:06:43.589Z,94885.56
2018-12-04T03:09:14.679Z,94890.36
2018-12-04T03:11:45.166Z,94892.76
2018-12-04T03:14:16.145Z,94883.50
2018-12-04T03:16:46.276Z,94886.33
2018-12-04T03:19:18.025Z,94882.48
2018-12-04T03:21:48.949Z,94888.14
2018-12-04T03:24:19.065Z,94880.16
2018-12-04T03:26:49.592Z,94884.58
2018-12-04T03:29:21.487Z,94878.53
2018-12-04T03:31:52.260Z,94879.73
2018-12-04T03:34:22.908Z,94882.94
2018-12-04T03:36:53.642Z,94877.22
2018-12-04T03:39:24.884Z,94882.62
2018-12-04T03:41:55.521Z,94873.91
2018-12-04T03:44:26.063Z,94884.25
2018-12-04T03:46:56.424Z,94886.51
2018-12-04T03:49:26.997Z,94882.69
2018-12-04T03:51:57.822Z,94883.02
2018-12-04T03:54:28.455Z,94885.23
2018-12-04T03:56:58.745Z,94883.02
2018-12-04T03:59:29.296Z,94878.86
2018-12-04T04:02:00.430Z,94883.30
2018-12-04T04:04:31.063Z,94881.38
2018-12-04T04:07:02.446Z,94883.30
2018-12-04T04:09:33.470Z,94877.25
2018-12-04T04:12:06.231Z,94880.49
2018-12-04T04:14:37.548Z,94884.47
2018-12-04T04:17:07.916Z,94881.41
2018-12-04T04:19:39.425Z,94876.96
2018-12-04T04:22:10.557Z,94877.58
2018-12-04T04:24:41.362Z,94877.17
2018-12-04T04:27:12.135Z,94878.94
2018-12-04T04:29:43.228Z,94877.38
2018-12-04T04:32:15.043Z,94874.82
2018-12-04T04:34:45.569Z,94873.79
2018-12-04T04:37:15.846Z,94877.32
2018-12-04T04:39:47.013Z,94883.72
2018-12-04T04:42:18.385Z,94884.67
2018-12-04T04:44:48.647Z,94885.02
2018-12-04T04:47:19.070Z,94882.14
2018-12-04T04:49:49.573Z,94879.59
2018-12-04T04:52:21.223Z,94879.27
2018-12-04T04:54:52.250Z,94879.30
2018-12-04T04:57:22.814Z,94876.74
2018-12-04T04:59:54.230Z,94880.70
2018-12-04T05:02:24.821Z,94875.59
2018-12-04T05:04:55.359Z,94877.72
2018-12-04T05:07:26.202Z,94880.28
2018-12-04T05:09:56.435Z,94876.45
2018-12-04T05:12:26.580Z,94872.61
2018-12-04T05:14:56.913Z,94869.77
2018-12-04T05:17:27.135Z,94860.20
2018-12-04T05:19:57.511Z,94863.09
2018-12-04T05:22:27.912Z,94863.26
2018-12-04T05:24:58.188Z,94858.61
2018-12-04T05:27:28.256Z,94861.50
2018-12-04T05:29:58.633Z,94859.55
2018-12-04T05:32:28.926Z,94862.73
2018-12-04T05:34:59.238Z,94867.20
2018-12-04T05:37:29.578Z,94868.00
2018-12-04T05:39:59.663Z,94860.82
2018-12-04T05:42:30.066Z,94867.53
2018-12-04T05:45:00.260Z,94863.23
2018-12-04T05:47:30.528Z,94862.73
2018-12-04T05:50:01.294Z,94865.31
2018-12-04T05:52:31.720Z,94865.30
2018-12-04T05:55:01.929Z,94869.14
2018-12-04T05:57:32.130Z,94873.09
2018-12-04T06:00:02.322Z,94869.76
2018-12-04T06:02:32.671Z,94872.96
2018-12-04T06:05:02.868Z,94877.11
2018-12-04T06:07:33.097Z,94881.75
2018-12-04T06:10:04.690Z,94875.55
2018-12-04T06:12:34.956Z,94874.89
2018-12-04T06:15:05.624Z,94881.61
2018-12-04T06:17:36.050Z,94888.33
2018-12-04T06:20:06.567Z,94887.37
2018-12-04T06:22:36.841Z,94887.66
2018-12-04T06:25:07.203Z,94887.69
2018-12-04T06:27:37.599Z,94893.13
2018-12-04T06:30:08.338Z,94898.70
2018-12-04T06:32:38.691Z,94899.03
2018-12-04T06:35:09.148Z,94896.33
2018-12-04T06:37:39.434Z,94895.67
2018-12-04T06:40:09.830Z,94897.28
2018-12-04T06:42:40.102Z,94901.44
2018-12-04T06:45:10.429Z,94901.25
2018-12-04T06:47:40.936Z,94900.77
2018-12-04T06:50:12.067Z,94897.76
2018-12-04T06:52:42.321Z,94902.55
2018-12-04T06:55:12.575Z,94893.59
2018-12-04T06:57:42.805Z,94900.78
2018-12-04T07:00:12.940Z,94904.14
2018-12-04T07:02:43.247Z,94899.50
2018-12-04T07:05:13.708Z,94903.95
2018-12-04T07:07:44.186Z,94908.77
2018-12-04T07:10:14.486Z,94906.85
2018-12-04T07:12:44.790Z,94904.28
2018-12-04T07:15:15.221Z,94898.66
2018-12-04T07:17:45.365Z,94902.67
2018-12-04T07:20:15.460Z,94899.47
2018-12-04T07:22:45.635Z,94897.53
2018-12-04T07:25:15.851Z,94892.73
2018-12-04T07:27:46.076Z,94898.47
2018-12-04T07:30:16.402Z,94901.52
2018-12-04T07:32:46.643Z,94899.09
2018-12-04T07:35:16.937Z,94905.81
2018-12-04T07:37:47.161Z,94908.69
2018-12-04T07:40:17.385Z,94916.03
2018-12-04T07:42:47.620Z,94910.56
2018-12-04T07:45:17.784Z,94914.11
2018-12-04T07:47:47.985Z,94913.45
2018-12-04T07:50:18.151Z,94909.28
2018-12-04T07:52:48.460Z,94907.34
2018-12-04T07:55:18.765Z,94908.59
2018-12-04T07:57:49.069Z,94913.04
2018-12-04T08:00:19.306Z,94910.70
2018-12-04T08:02:49.447Z,94912.58
2018-12-04T08:05:20.312Z,94916.18
2018-12-04T08:07:50.514Z,94913.89
2018-12-04T08:10:20.893Z,94916.19
2018-12-04T08:12:51.195Z,94912.98
2018-12-04T08:15:21.538Z,94918.42
2018-12-04T08:17:51.816Z,94915.33
2018-12-04T08:20:22.062Z,94914.68
2018-12-04T08:22:52.905Z,94915.50
2018-12-04T08:25:23.154Z,94917.38
2018-12-04T08:27:53.443Z,94910.75
2018-12-04T08:30:23.714Z,94911.20
2018-12-04T08:32:54.047Z,94903.43
2018-12-04T08:35:24.262Z,94902.59
2018-12-04T08:37:54.528Z,94899.58
2018-12-04T08:40:24.766Z,94904.47
2018-12-04T08:42:55.016Z,94905.44
2018-12-04T08:45:25.252Z,94903.49
2018-12-04T08:47:55.484Z,94904.05
2018-12-04T08:50:25.751Z,94900.63
2018-12-04T08:52:55.864Z,94898.48
2018-12-04T08:55:26.120Z,94894.48
2018-12-04T08:57:56.397Z,94890.17
2018-12-04T09:00:26.588Z,94888.59
2018-12-04T09:02:56.817Z,94889.52
2018-12-04T09:05:26.986Z,94889.52
2018-12-04T09:24:17.749Z,94868.95
2018-12-04T09:26:48.115Z,94873.03
2018-12-04T09:29:18.767Z,94873.70
2018-12-04T09:31:49.302Z,94863.19
2018-12-04T09:34:19.538Z,94858.94
2018-12-04T09:36:49.782Z,94852.63
2018-12-04T09:39:20.088Z,94851.96
2018-12-04T09:41:50.437Z,94848.23
2018-12-04T09:44:20.944Z,94854.00
2018-12-04T09:46:51.373Z,94841.63
2018-12-04T09:49:21.862Z,94839.14
2018-12-04T09:51:51.965Z,94838.56
2018-12-04T09:54:22.343Z,94839.76
2018-12-04T09:56:52.529Z,94829.77
2018-12-04T09:59:23.047Z,94830.45
2018-12-04T10:01:53.410Z,94831.64
2018-12-04T10:04:23.710Z,94825.52
2018-12-04T10:06:54.053Z,94823.85
2018-12-04T10:09:24.362Z,94819.09
2018-12-04T10:11:55.550Z,94819.86
2018-12-04T10:14:25.928Z,94811.82
2018-12-04T10:16:56.236Z,94813.05
2018-12-04T10:19:27.653Z,94804.72
2018-12-04T10:21:57.829Z,94807.05
2018-12-04T10:24:28.062Z,94811.69
2018-12-04T10:26:59.147Z,94805.77
2018-12-04T10:29:29.447Z,94810.58
2018-12-04T10:31:59.770Z,94803.79
2018-12-04T10:34:30.042Z,94802.91
2018-12-04T10:37:00.222Z,94801.06
2018-12-04T10:39:31.161Z,94792.31
2018-12-04T10:42:01.454Z,94789.94
2018-12-04T10:44:31.741Z,94790.55
2018-12-04T10:47:02.268Z,94781.58
2018-12-04T10:49:33.111Z,94783.62
2018-12-04T10:52:03.428Z,94783.12
2018-12-04T10:54:33.650Z,94785.78
2018-12-04T10:57:09.666Z,94781.83
2018-12-04T10:59:36.278Z,94788.05
2018-12-04T11:02:12.955Z,94781.84
2018-12-04T11:04:43.344Z,94779.37
2018-12-04T11:07:13.721Z,94786.78
2018-12-04T11:09:45.209Z,94780.74
2018-12-04T11:12:15.597Z,94782.91
2018-12-04T11:14:45.946Z,94775.59
2018-12-04T11:17:16.222Z,94782.44
2018-12-04T11:19:46.650Z,94782.44
2018-12-04T11:22:17.076Z,94768.88
2018-12-04T11:24:47.407Z,94778.61
2018-12-04T11:27:17.742Z,94778.90
2018-12-04T11:29:48.052Z,94774.80
2018-12-04T11:32:18.289Z,94782.53
2018-12-04T11:34:48.534Z,94780.39
2018-12-04T11:37:18.915Z,94774.89
2018-12-04T11:39:49.178Z,94771.69
2018-12-04T11:42:19.571Z,94775.48
2018-12-04T11:44:49.963Z,94771.45
2018-12-04T11:47:20.839Z,94776.09
2018-12-04T11:49:51.221Z,94775.24
2018-12-04T12:09:01.851Z,94766.77
2018-12-04T12:11:32.305Z,94767.41
2018-12-04T12:14:03.213Z,94763.63
2018-12-04T12:16:33.485Z,94763.47
2018-12-04T12:19:03.904Z,94765.67
2018-12-04T12:21:34.136Z,94760.80
2018-12-04T12:24:04.453Z,94765.89
2018-12-04T12:26:34.650Z,94767.25
2018-12-04T12:29:04.953Z,94765.77
2018-12-04T12:31:35.235Z,94754.15
2018-12-04T12:34:05.469Z,94763.01
2018-12-04T12:36:35.544Z,94767.31
2018-12-04T12:39:08.608Z,94766.78
2018-12-04T12:41:40.993Z,94763.58
2018-12-04T12:44:11.467Z,94765.11
2018-12-04T12:46:41.629Z,94762.20
2018-12-04T12:49:12.549Z,94764.75
2018-12-04T12:51:42.932Z,94763.80
2018-12-04T12:54:13.234Z,94767.31
2018-12-04T12:56:43.456Z,94770.98
2018-12-04T12:59:13.785Z,94766.61
2018-12-04T13:01:43.952Z,94775.83
2018-12-04T13:04:14.215Z,94773.77
2018-12-04T13:06:44.434Z,94777.28
2018-12-04T13:09:14.666Z,94781.09
2018-12-04T13:11:44.853Z,94781.17
2018-12-04T13:14:14.981Z,94779.69
2018-12-04T13:16:45.313Z,94781.52
2018-12-04T13:19:15.865Z,94784.40
2018-12-04T13:21:46.170Z,94776.77
2018-12-04T13:24:16.452Z,94783.70
2018-12-04T13:26:46.683Z,94775.95
2018-12-04T13:29:16.949Z,94779.63
2018-12-04T13:31:47.252Z,94780.19
2018-12-04T13:34:17.550Z,94776.02
2018-12-04T13:36:47.709Z,94779.82
2018-12-04T13:39:18.138Z,94778.39
2018-12-04T13:41:48.362Z,94773.66
2018-12-04T13:44:20.140Z,94775.52
2018-12-04T13:46:50.505Z,94775.04
2018-12-04T13:49:20.889Z,94777.12
2018-12-04T13:51:51.047Z,94777.22
2018-12-04T13:54:22.245Z,94778.95
2018-12-04T13:56:52.581Z,94787.07
2018-12-04T13:59:23.062Z,94779.67
2018-12-04T14:01:53.430Z,94776.61
2018-12-04T14:04:23.709Z,94780.18
2018-12-04T14:06:53.940Z,94780.62
2018-12-04T14:09:26.117Z,94775.63
2018-12-04T14:11:56.669Z,94771.36
2018-12-04T14:14:26.984Z,94772.91
2018-12-04T14:16:57.289Z,94775.52
2018-12-04T14:19:27.591Z,94776.77
2018-12-04T14:21:57.798Z,94777.66
2018-12-04T14:24:28.207Z,94777.34
2018-12-04T14:26:58.477Z,94776.86
2018-12-04T14:29:28.678Z,94778.77
2018-12-04T14:31:59.139Z,94791.31
2018-12-04T14:34:29.929Z,94788.16
2018-12-04T14:37:00.196Z,94786.30
2018-12-04T14:39:30.505Z,94789.16
2018-12-04T14:42:00.925Z,94789.28
2018-12-04T14:44:31.435Z,94790.08
2018-12-04T14:47:01.899Z,94796.09
2018-12-04T14:49:32.140Z,94788.25
2018-12-04T14:52:03.021Z,94794.45
2018-12-04T14:54:33.157Z,94792.67
2018-12-04T14:57:03.537Z,94796.75
2018-12-04T14:59:33.828Z,94784.78
2018-12-04T15:02:04.428Z,94791.55
2018-12-04T15:04:34.820Z,94795.69
2018-12-04T15:07:05.209Z,94791.98
2018-12-04T15:09:35.629Z,94798.44
2018-12-04T15:12:05.987Z,94794.31
2018-12-04T15:14:36.373Z,94806.03
2018-12-04T15:17:07.368Z,94798.86
2018-12-04T15:19:37.825Z,94800.45
2018-12-04T15:22:08.195Z,94800.52
2018-12-04T15:24:38.356Z,94801.58
2018-12-04T15:27:08.761Z,94808.09
2018-12-04T15:29:39.206Z,94807.12
2018-12-04T15:32:09.595Z,94806.16
2018-12-04T15:34:39.947Z,94807.77
2018-12-04T15:37:10.329Z,94811.61
2018-12-04T15:39:40.650Z,94816.26
2018-12-04T15:42:11.184Z,94809.22
2018-12-04T15:44:41.503Z,94813.52
2018-12-04T15:47:12.861Z,94814.18
2018-12-04T15:49:44.515Z,94818.52
2018-12-04T15:52:15.039Z,94815.77
2018-12-04T15:54:45.599Z,94815.32
2018-12-04T15:57:16.119Z,94819.48
2018-12-04T15:59:46.393Z,94822.33
2018-12-04T16:02:16.875Z,94822.98
2018-12-04T16:04:47.184Z,94824.80
2018-12-04T16:07:17.386Z,94829.00
2018-12-04T16:09:47.881Z,94820.75
2018-12-04T16:12:18.228Z,94823.42
2018-12-04T16:14:48.609Z,94821.72
2018-12-04T16:17:18.967Z,94818.87
2018-12-04T16:19:49.393Z,94821.34
2018-12-04T16:22:19.767Z,94813.42
2018-12-04T16:24:50.253Z,94821.58
2018-12-04T16:27:21.177Z,94822.06
2018-12-04T16:29:51.439Z,94827.93
2018-12-04T16:32:21.707Z,94835.34
2018-12-04T16:34:51.978Z,94827.04
2018-12-04T16:37:22.222Z,94829.36
2018-12-04T16:39:52.540Z,94824.41
2018-12-04T16:42:22.917Z,94829.12
2018-12-04T16:44:53.288Z,94835.25
2018-12-04T16:47:23.610Z,94832.74
2018-12-04T16:49:53.859Z,94840.14
2018-12-04T16:52:24.359Z,94831.75
2018-12-04T16:54:54.653Z,94839.28
2018-12-04T16:57:25.198Z,94833.00
2018-12-04T16:59:55.629Z,94841.92
2018-12-04T17:02:26.215Z,94843.09
2018-12-04T17:04:56.612Z,94840.26
2018-12-04T17:07:26.872Z,94837.77
2018-12-04T17:09:57.374Z,94836.52
2018-12-04T17:12:27.651Z,94838.48
2018-12-04T17:14:57.996Z,94835.66
2018-12-04T17:17:28.326Z,94831.50
2018-12-04T17:19:58.691Z,94845.11
2018-12-04T17:22:29.192Z,94837.85
2018-12-04T17:24:59.420Z,94837.81
2018-12-04T17:27:29.667Z,94843.86
2018-12-04T17:30:00.034Z,94845.59
2018-12-04T17:32:31.386Z,94843.92
2018-12-04T17:35:01.905Z,94852.98
2018-12-04T17:37:33.375Z,94845.45
2018-12-04T17:40:04.469Z,94851.33
2018-12-04T17:42:34.865Z,94849.17
2018-12-04T17:45:05.835Z,94860.14
2018-12-04T17:47:36.090Z,94862.59
2018-12-04T17:50:07.864Z,94858.19
2018-12-04T17:52:38.338Z,94863.98
2018-12-04T17:55:08.964Z,94861.87
2018-12-04T17:57:39.207Z,94866.03
2018-12-04T18:00:11.457Z,94867.31
2018-12-04T18:02:43.618Z,94877.28
2018-12-04T18:05:13.822Z,94880.27
2018-12-04T18:07:46.210Z,94891.93
2018-12-04T18:10:16.644Z,94886.66
2018-12-04T18:12:47.191Z,94891.00
2018-12-04T18:15:19.567Z,94893.25
2018-12-04T18:17:49.774Z,94886.63
2018-12-04T18:20:20.252Z,94901.07
2018-12-04T18:22:50.632Z,94902.49
2018-12-04T18:25:21.191Z,94905.86
2018-12-04T18:27:51.432Z,94901.70
2018-12-04T18:30:21.701Z,94902.00
2018-12-04T18:32:52.954Z,94895.69
2018-12-04T18:35:24.114Z,94904.99
2018-12-04T18:37:54.361Z,94905.41
2018-12-04T18:40:24.631Z,94901.63
2018-12-04T18:42:55.881Z,94908.26
2018-12-04T18:45:26.196Z,94908.36
2018-12-04T18:47:56.579Z,94901.66
2018-12-04T18:50:26.946Z,94907.28
2018-12-04T18:52:57.722Z,94903.08
2018-12-04T18:55:28.038Z,94910.48
2018-12-04T18:57:58.348Z,94906.31
2018-12-04T19:00:28.793Z,94907.39
2018-12-04T19:02:59.112Z,94912.11
2018-12-04T19:05:29.665Z,94917.59
2018-12-04T19:08:00.064Z,94916.85
2018-12-04T19:10:30.370Z,94913.25
2018-12-04T19:13:00.595Z,94913.70
2018-12-04T19:15:30.796Z,94917.48
2018-12-04T19:18:01.141Z,94916.52
2018-12-04T19:20:31.490Z,94925.34
2018-12-04T19:23:02.060Z,94920.93
2018-12-04T19:25:32.428Z,94922.28
2018-12-04T19:28:03.213Z,94924.82
2018-12-04T19:30:33.631Z,94931.24
2018-12-04T19:33:03.934Z,94937.29
2018-12-04T19:35:34.070Z,94936.07
2018-12-04T19:38:06.828Z,94939.89
2018-12-04T19:40:37.348Z,94938.67
2018-12-04T19:43:07.754Z,94937.59
2018-12-04T19:45:38.142Z,94934.44
2018-12-04T19:48:08.368Z,94934.38
2018-12-04T19:50:38.590Z,94931.45
2018-12-04T19:53:08.937Z,94937.50
2018-12-04T19:55:39.270Z,94936.52
2018-12-04T19:58:10.236Z,94938.61
2018-12-04T20:00:40.549Z,94943.09
2018-12-04T20:03:10.749Z,94938.30
2018-12-04T20:05:41.040Z,94934.23
2018-12-04T20:08:11.390Z,94938.36
2018-12-04T20:10:41.607Z,94937.33
2018-12-04T20:13:12.102Z,94942.42
2018-12-04T20:15:42.510Z,94939.06
2018-12-04T20:18:12.702Z,94940.03
2018-12-04T20:20:42.754Z,94936.59
2018-12-04T20:23:13.146Z,94939.58
2018-12-04T20:25:43.449Z,94941.03
2018-12-04T20:28:13.746Z,94932.87
2018-12-04T20:30:44.412Z,94936.38
2018-12-04T20:33:14.531Z,94936.94
2018-12-04T20:35:44.802Z,94940.94
2018-12-04T20:38:15.290Z,94938.05
2018-12-04T20:40:45.550Z,94928.78
2018-12-04T20:43:15.947Z,94932.53
2018-12-04T20:45:46.342Z,94942.59
2018-12-04T20:48:16.622Z,94946.91
2018-12-04T20:50:46.953Z,94948.13
2018-12-04T20:53:17.297Z,94949.81
2018-12-04T20:55:47.521Z,94951.91
2018-12-04T20:58:17.845Z,94958.05
2018-12-04T21:00:48.124Z,94952.91
2018-12-04T21:03:18.312Z,94956.41
2018-12-04T21:05:48.512Z,94961.77
2018-12-04T21:08:18.758Z,94954.06
2018-12-04T21:10:49.078Z,94959.75
2018-12-04T21:13:19.286Z,94966.28
2018-12-04T21:15:49.621Z,94976.22
2018-12-04T21:18:19.891Z,94972.61
2018-12-04T21:20:50.255Z,94978.89
2018-12-04T21:23:20.512Z,94974.74
2018-12-04T21:25:50.659Z,94964.09
2018-12-04T21:28:23.263Z,94970.27
2018-12-04T21:30:58.615Z,94976.77
2018-12-04T21:33:34.519Z,94971.70
2018-12-04T21:36:09.992Z,94970.23
2018-12-04T21:39:04.477Z,94981.77
2018-12-04T21:41:39.668Z,94989.72
2018-12-04T21:44:15.075Z,94999.03
2018-12-04T21:46:50.493Z,94989.59
2018-12-04T21:49:20.790Z,94994.88
2018-12-04T21:51:51.038Z,94995.61
2018-12-04T21:54:21.468Z,94998.98
2018-12-04T21:56:51.765Z,95003.77
2018-12-04T21:59:21.941Z,95000.66
2018-12-04T22:01:52.198Z,94999.75
2018-12-04T22:04:22.493Z,94997.11
2018-12-04T22:06:52.745Z,95001.91
2018-12-04T22:09:22.977Z,95005.70
2018-12-04T22:11:53.175Z,95002.91
2018-12-04T22:14:23.426Z,95007.53
2018-12-04T22:16:54.446Z,95013.70
2018-12-04T22:19:24.883Z,95014.76
2018-12-04T22:21:55.429Z,95011.88
2018-12-04T22:24:26.085Z,95008.90
2018-12-04T22:26:56.534Z,95012.97
2018-12-04T22:29:27.074Z,95016.42
2018-12-04T22:31:57.486Z,95018.33
2018-12-04T22:34:27.640Z,95021.25
2018-12-04T22:36:57.930Z,95025.20
2018-12-04T22:39:28.211Z,95025.17
2018-12-04T22:41:58.352Z,95025.10
2018-12-04T22:44:28.551Z,95021.05
2018-12-04T22:46:58.893Z,95013.51
2018-12-04T22:49:29.225Z,95012.08
2018-12-04T22:51:59.476Z,95014.19
2018-12-04T22:54:29.750Z,95015.73
2018-12-04T22:56:59.963Z,95014.84
2018-12-04T22:59:30.328Z,95010.77
2018-12-04T23:02:01.544Z,95011.64
2018-12-04T23:04:31.803Z,95015.55
2018-12-04T23:07:02.097Z,95013.64
2018-12-04T23:09:32.497Z,95012.91
2018-12-04T23:12:03.050Z,95015.56
2018-12-04T23:14:33.731Z,95015.95
2018-12-04T23:17:04.253Z,95022.86
2018-12-04T23:19:34.576Z,95017.55
2018-12-04T23:22:05.727Z,95019.74
2018-12-04T23:24:36.962Z,95021.66
2018-12-04T23:27:07.349Z,95020.06
2018-12-04T23:29:37.588Z,95026.80
2018-12-04T23:32:07.800Z,95027.67
2018-12-04T23:34:38.037Z,95028.69
2018-12-04T23:37:08.300Z,95026.22
2018-12-04T23:39:38.433Z,95029.91
2018-12-04T23:42:08.671Z,95036.89
2018-12-04T23:44:38.914Z,95033.69
2018-12-04T23:47:09.223Z,95034.97
2018-12-04T23:49:39.391Z,95034.17
2018-12-04T23:52:09.707Z,95032.72
2018-12-04T23:54:39.974Z,95043.66
2018-12-04T23:57:10.160Z,95042.20
2018-12-04T23:59:40.448Z,95050.65
